KAPA/APA METAR and TAF weather

Enter ICAO airport designator
Station Type Date Time Source
KAPA METAR 2021/09/23 17:53 UTC NOAA

KAPA 231753Z 30005KT 10SM BKN200 24/M04 A3017 RMK AO2 SLP156 T02391044 10239 20078 50001


Station Type Date Time Source
KAPA Decoded METAR 2021/09/23 17:53 UTC NOAA

DENVER CENTENNIAL AIRPORT, CO, United States (KAPA) 39-34N 104-51W 1775M
Sep 23, 2021 - 01:53 PM EDT / 2021.09.23 1753 UTC
Wind: from the WNW (300 degrees) at 6 MPH (5 KT):0
Visibility: 10 mile(s):0
Sky conditions: mostly cloudy
Temperature: 75.0 F (23.9 C)
Dew Point: 24.1 F (-4.4 C)
Relative Humidity: 14%
Pressure (altimeter): 30.17 in. Hg (1021 hPa)
Pressure tendency: 0.00 inches (0.1 hPa) higher than three hours ago
ob: KAPA 231753Z 30005KT 10SM BKN200 24/M04 A3017 RMK AO2 SLP156 T02391044 10239 20078 50001
cycle: 18

Station Type Date Time Source
KAPA TAF 2021/09/23 18:30 UTC NOAA

TAF KAPA 231726Z 2318/2418 05010KT P6SM BKN200
FM232100 07013KT P6SM BKN200
FM240300 25007KT P6SM SCT200
FM241500 VRB06KT P6SM FEW200

Example: see airport list